Current Weather Conditions: station 46183

sailwx.info

Wind from 120 at 29 knots gusting 34

Wave height 2.9 meters (9 feet), 7 second period

Air temperature 7.8° C
Water temperature 9.3° C

Last reported at 2015-Feb-01 18:00 UTC.
Time now 2015-Feb-01 19:42 UTC

Location: N 53°36' W 131°06'.
View on Google Maps.

See reports from other nearby stations

  
Tides and Currents Weather Stations Pressure Air Temp Water Temp Dewpoint Dewpoint Depression Visibility Wind Speed Wind Dir Waves Ship Positions
date/time (UTC)wind fromknots sea level pressurealtimeterstation pressurevisibilityair tempwater tempwave heightnotes
2015-Feb-01 18:00 120 29 gusting 34 7.8 9.3 2.9
2015-Feb-01 17:00 120 27 gusting 33 8.3 9.3 2.8
2015-Feb-01 16:00 110 27 gusting 33 8.4 9.3 2.6
2015-Feb-01 15:00 110 25 gusting 31 8.1 9.3 2.3
2015-Feb-01 14:00 100 19 gusting 25 7.4 9.3 1.9
2015-Feb-01 13:00 090 21 gusting 25 6.9 9.3 1.9
2015-Feb-01 12:00 080 23 gusting 27 6.7 9.3 1.8
2015-Feb-01 11:00 080 23
2015-Feb-01 10:00 090 23 gusting 27 6.8 9.3 1.9
2015-Feb-01 09:00 090 25 gusting 29 6.6 9.3 1.7
2015-Feb-01 08:00 100 25 gusting 29 7.0 9.3 1.4
2015-Feb-01 07:00 090 25 gusting 29 7.2 9.4 1.2
2015-Feb-01 06:00 090 19 gusting 23 7.4 9.4 1.1
2015-Feb-01 05:00 100 17 gusting 19 7.8 9.4 0.9
2015-Feb-01 04:00 100 13 gusting 17 8.4 9.4 0.8
2015-Feb-01 03:00 100 11 gusting 13 8.5 9.3 0.8
2015-Feb-01 02:00 100 9 gusting 11 8.4 9.4 0.7
2015-Feb-01 01:00 100 7 gusting 9 7.8 9.3 0.6
2015-Feb-01 00:00 090 7 gusting 9 7.7 9.3 0.6
2015-Jan-31 23:00 100 7 gusting 9 7.8 9.3 0.6
2015-Jan-31 22:00 120 5 gusting 5 7.9 9.2 0.7
2015-Jan-31 21:00 100 7 gusting 7 7.4 9.2 0.7
2015-Jan-31 19:00 060 7 gusting 9 7.5 9.1 0.6
2015-Jan-31 18:00 070 9 gusting 11 7.0 9.1 0.5
2015-Jan-31 17:00 100 3 gusting 5 7.0 9.3 0.5
2015-Jan-31 16:00 090 5 gusting 7 7.0 9.3 0.5
2015-Jan-31 15:00 100 5 gusting 7 7.1 9.3 0.5
2015-Jan-31 14:00 080 7 gusting 9 7.0 9.3 0.5
2015-Jan-31 13:00 080 7 gusting 9 7.3 9.2 0.5
2015-Jan-31 12:00 060 5 gusting 7 7.6 9.2 0.5
2015-Jan-31 11:00 180 1 gusting 3 7.7 9.1 0.5
2015-Jan-31 10:00 160 1 gusting 3 7.4 9.0 0.6
2015-Jan-31 09:00 140 1 gusting 3 7.1 9.0 0.6
2015-Jan-31 07:00 060 3 gusting 3 7.6 9.0 0.7
2015-Jan-31 06:00 040 3 gusting 3 7.7 9.1 0.7
2015-Jan-31 05:00 040 7 gusting 9 7.7 9.4 0.8
2015-Jan-31 04:00 040 9 gusting 11 7.9 9.4 0.8
2015-Jan-31 03:00 020 11 gusting 13 7.8 9.4 0.9
2015-Jan-31 02:00
2015-Jan-31 01:00 7.7 9.4 1.1
2015-Jan-31 00:00 350 15 gusting 17 7.8 9.4 1.3
2015-Jan-30 23:00 330 17 gusting 19 7.8 9.4 1.4
2015-Jan-30 22:00 340 15 gusting 17 8.2 9.4 1.5
2015-Jan-30 21:00 350 15 gusting 19 8.2 9.5 1.6
2015-Jan-30 20:00 8.1 9.5 2.0
2015-Jan-30 19:00 350 17 gusting 21 8.2 9.5 1.9